Nearby METAR Reports

 

LEVC - Valencia (civ/Mi, Spain
Distacia desde Piles: NO 69km
Actu.: 16/01/2019 20:00
Despejado
Despejado
 Viento del ONO
Viento: ONO 7 km/h
Temperatura: 9°C
Wind Chill: 8°C
Rocío: 7°C
Humedad: 87%
Barómetro: 1016 hPa
Resumen: Despejado
Visibility: greater than 10 km
2019/01/16 19:00 LEVC 161900Z 30004KT CAVOK 09/07 Q1016 NOSIG
LEAL - Alicante/El Alte, Spain
Distacia desde Piles: SSO 94km
Actu.: 16/01/2019 20:00
Despejado
Despejado
 Viento del O
Viento: O 7 km/h
Temperatura: 9°C
Wind Chill: 8°C
Rocío: 8°C
Humedad: 94%
Barómetro: 1017 hPa
Resumen: Despejado
Visibility: greater than 10 km
2019/01/16 19:00 LEAL 161900Z 28004KT CAVOK 09/08 Q1017 NOSIG
 
LEIB - Ibiza/Es Codola, Spain
Distacia desde Piles: E 119km
Actu.: 16/01/2019 20:00
Muy nuboso
Muy nuboso
 Viento del SSO
Viento: SSO 13 km/h
Temperatura: 13°C
Rocío: 8°C
Humedad: 72%
Barómetro: 1017 hPa
Clouds: Muy nuboso
Visibility: 10 km
Cloud details: Few Clouds 549 m
Muy nuboso 762 m
2019/01/16 19:00 LEIB 161900Z 20007KT 9999 FEW018 BKN025 13/08 Q1017 NOSIG
LELC - San Javier(Mil/C, Spain
Distacia desde Piles: SSO 154km
Actu.: 16/01/2019 20:00
Despejado
Despejado
 Viento del SO
Viento: SO 6 km/h
Temperatura: 9°C
Rocío: 7°C
Humedad: 87%
Barómetro: 1017 hPa
Resumen: Despejado
Visibility: greater than 10 km
2019/01/16 19:00 LELC 161900Z 22003KT CAVOK 09/07 Q1017 NOSIG
 
LERI - Alcantarilla(Sp-, Spain
Distacia desde Piles: SO 158km
Actu.: 16/01/2019 19:00
Despejado
Despejado
 Viento del SO
Viento: SO 7 km/h
Temperatura: 10°C
Wind Chill: 9°C
Rocío: 8°C
Humedad: 88%
Barómetro: 1016 hPa
Resumen: Despejado
Visibility: greater than 10 km
2019/01/16 18:00 LERI 161800Z 22004KT CAVOK 10/08 Q1016 NOSIG
LEAB - Albacete (civ/Mi, Spain
Distacia desde Piles: O 160km
Actu.: 16/01/2019 20:00
Despejado
Despejado
 Viento del SO
Viento: SO 7 km/h
Temperatura: 5°C
Wind Chill: 3°C
Rocío: 3°C
Humedad: 87%
Barómetro: 1018 hPa
Resumen: Despejado
Visibility: greater than 10 km
2019/01/16 19:00 LEAB 161900Z 23004KT CAVOK 05/03 Q1018 NOSIG